createdAt,value
2018-11-05T00:07:58.235Z,87.53
2018-11-05T00:17:59.498Z,89.10
2018-11-05T00:28:00.758Z,96.17
2018-11-05T00:38:02.051Z,102.40
2018-11-05T00:48:04.066Z,108.40
2018-11-05T00:58:06.110Z,108.57
2018-11-05T01:08:07.405Z,127.53
2018-11-05T01:18:08.678Z,128.80
2018-11-05T01:28:09.947Z,114.77
2018-11-05T01:38:11.235Z,118.50
2018-11-05T01:48:13.574Z,112.90
2018-11-05T01:58:14.867Z,113.43
2018-11-05T02:08:16.148Z,114.63
2018-11-05T02:18:17.398Z,111.23
2018-11-05T02:28:18.665Z,122.53
2018-11-05T02:38:19.936Z,126.70
2018-11-05T02:48:21.221Z,109.53
2018-11-05T02:58:22.490Z,106.27
2018-11-05T03:08:23.770Z,96.17
2018-11-05T03:18:25.050Z,85.80
2018-11-05T03:28:27.111Z,87.80
2018-11-05T03:38:28.406Z,83.73
2018-11-05T03:48:29.659Z,91.83
2018-11-05T03:58:31.706Z,81.50
2018-11-05T04:08:32.967Z,91.67
2018-11-05T04:18:34.974Z,74.10
2018-11-05T04:28:37.001Z,74.07
2018-11-05T04:38:38.279Z,69.03
2018-11-05T04:48:40.307Z,62.97
2018-11-05T04:58:42.350Z,62.83
2018-11-05T05:08:44.423Z,64.80
2018-11-05T05:18:46.487Z,66.90
2018-11-05T05:28:47.785Z,58.33
2018-11-05T05:38:49.067Z,59.80
2018-11-05T05:48:50.326Z,61.20
2018-11-05T05:58:52.337Z,55.60
2018-11-05T06:08:54.359Z,50.70
2018-11-05T06:18:55.623Z,48.57
2018-11-05T06:28:56.892Z,52.90
2018-11-05T06:38:58.165Z,50.23
2018-11-05T06:48:59.494Z,46.13
2018-11-05T06:59:00.719Z,42.60
2018-11-05T07:09:02.764Z,41.60
2018-11-05T07:19:04.350Z,41.03
2018-11-05T07:29:05.340Z,43.00
2018-11-05T07:39:07.367Z,43.50
2018-11-05T07:49:08.646Z,42.57
2018-11-05T07:59:10.675Z,37.37
2018-11-05T08:09:11.937Z,37.70
2018-11-05T08:19:13.230Z,32.23
2018-11-05T08:29:15.320Z,33.57
2018-11-05T08:39:16.601Z,26.80
2018-11-05T08:49:17.889Z,27.07
2018-11-05T08:59:19.169Z,28.43
2018-11-05T09:09:20.447Z,24.03
2018-11-05T09:19:22.504Z,26.17
2018-11-05T09:29:23.765Z,23.67
2018-11-05T09:39:25.806Z,21.20
2018-11-05T09:49:27.116Z,23.77
2018-11-05T09:59:28.418Z,27.33
2018-11-05T10:09:29.725Z,22.80
2018-11-05T10:19:30.951Z,23.43
2018-11-05T10:29:32.986Z,22.23
2018-11-05T10:39:34.264Z,23.40
2018-11-05T10:49:35.558Z,19.53
2018-11-05T10:59:37.602Z,23.23
2018-11-05T11:09:38.942Z,25.43
2018-11-05T11:19:40.092Z,19.47
2018-11-05T11:29:41.368Z,20.50
2018-11-05T11:39:42.603Z,24.20
2018-11-05T11:49:43.866Z,20.33
2018-11-05T11:59:45.210Z,24.67
2018-11-05T12:09:46.461Z,26.23
2018-11-05T12:19:47.759Z,23.90
2018-11-05T12:29:49.082Z,29.80
2018-11-05T12:39:50.325Z,30.57
2018-11-05T12:49:52.399Z,30.40
2018-11-05T12:59:53.659Z,33.10
2018-11-05T13:09:54.912Z,39.53
2018-11-05T13:19:56.931Z,37.13
2018-11-05T13:29:58.948Z,41.57
2018-11-05T13:40:01.022Z,39.33
2018-11-05T13:50:02.545Z,39.80
2018-11-05T14:00:03.591Z,34.13
2018-11-05T14:10:04.885Z,37.90
2018-11-05T14:20:06.176Z,38.90
2018-11-05T14:30:07.618Z,35.93
2018-11-05T14:40:09.932Z,45.03
2018-11-05T14:50:11.249Z,47.40
2018-11-05T15:00:12.511Z,48.10
2018-11-05T15:10:14.562Z,49.17
2018-11-05T15:20:16.464Z,45.27
2018-11-05T15:30:20.491Z,53.33
2018-11-05T15:40:24.859Z,63.05
2018-11-05T15:50:28.457Z,55.53
2018-11-05T16:31:28.767Z,58.07
2018-11-05T16:41:30.074Z,60.93
2018-11-05T16:51:32.102Z,59.83
2018-11-05T17:01:33.572Z,70.10
2018-11-05T17:11:34.674Z,68.50
2018-11-05T17:21:39.985Z,76.97
2018-11-05T17:31:43.107Z,66.27
2018-11-05T17:41:47.527Z,71.33
2018-11-05T17:51:48.968Z,72.00
2018-11-05T18:01:50.536Z,69.77
2018-11-05T18:11:52.614Z,85.70
2018-11-05T18:21:53.893Z,92.40
2018-11-05T18:31:57.223Z,76.50
2018-11-05T18:41:58.624Z,85.87
2018-11-05T18:51:59.904Z,83.10
2018-11-05T19:02:01.263Z,82.13
2018-11-05T19:12:02.721Z,90.17
2018-11-05T19:22:07.484Z,82.77
2018-11-05T19:32:09.156Z,78.33
2018-11-05T19:42:10.677Z,84.83
2018-11-05T19:52:14.124Z,97.33
2018-11-05T20:02:15.677Z,81.33
2018-11-05T20:12:17.612Z,88.27
2018-11-05T20:22:18.955Z,87.10
2018-11-05T20:32:20.693Z,80.27
2018-11-05T20:42:21.965Z,85.37
2018-11-05T20:52:27.739Z,84.80
2018-11-05T21:02:29.452Z,82.97
2018-11-05T21:12:30.933Z,85.80
2018-11-05T21:22:32.280Z,81.63
2018-11-05T21:32:33.516Z,77.27
2018-11-05T21:42:34.918Z,75.13
2018-11-05T21:52:37.360Z,84.70
2018-11-05T22:02:39.396Z,77.13
2018-11-05T22:12:40.733Z,73.93
2018-11-05T22:22:43.231Z,84.60
2018-11-05T22:32:44.438Z,70.87
2018-11-05T22:42:45.721Z,81.50
2018-11-05T22:52:47.068Z,79.97
2018-11-05T23:02:48.430Z,83.70
2018-11-05T23:12:50.690Z,85.97
2018-11-05T23:22:51.997Z,92.23
2018-11-05T23:32:54.070Z,85.73
2018-11-05T23:42:55.344Z,78.23
2018-11-05T23:52:56.619Z,82.37
